Time;durP1;ratioP1;P1;durP2;ratioP2;P2;SDS_P1;SDS_P2;PMS_P1;PMS_P2;Temp;Humidity;BMP_temperature;BMP_pressure;BME280_temperature;BME280_humidity;BME280_pressure;Samples;Min_cycle;Max_cycle;Signal;HPM_P1;HPM_P2
2023/06/30 00:04:57;;;;;;;6.65;4.85;;;;;;;;;;21003697;28;20045;-62
2023/06/30 00:14:58;;;;;;;8.05;5.00;;;;;;;;;;21002601;28;20048;-62
2023/06/30 00:25:00;;;;;;;7.57;4.22;;;;;;;;;;21002070;28;20390;-62
2023/06/30 00:35:01;;;;;;;5.15;3.42;;;;;;;;;;21000182;28;20570;-62
2023/06/30 00:45:02;;;;;;;7.38;3.78;;;;;;;;;;21000459;28;20053;-63
2023/06/30 00:55:03;;;;;;;5.97;3.67;;;;;;;;;;20999696;28;20040;-62
2023/06/30 01:05:10;;;;;;;6.97;3.15;;;;;;;;;;20998991;28;20048;-61
2023/06/30 01:15:12;;;;;;;4.97;2.77;;;;;;;;;;20998497;28;20047;-63
2023/06/30 01:25:21;;;;;;;5.57;3.15;;;;;;;;;;20998189;28;20119;-62
2023/06/30 01:35:25;;;;;;;5.20;2.35;;;;;;;;;;20996152;28;20135;-62
2023/06/30 01:45:27;;;;;;;5.78;2.50;;;;;;;;;;20998132;28;20049;-62
2023/06/30 01:55:28;;;;;;;4.35;2.60;;;;;;;;;;21023071;28;20051;-63
2023/06/30 02:05:29;;;;;;;3.75;2.08;;;;;;;;;;21023846;28;20482;-62
2023/06/30 02:15:31;;;;;;;3.35;2.05;;;;;;;;;;21022386;28;20044;-63
2023/06/30 02:25:32;;;;;;;4.10;2.30;;;;;;;;;;21023257;28;20076;-62
2023/06/30 02:35:33;;;;;;;4.30;2.80;;;;;;;;;;21022286;28;20135;-63
2023/06/30 02:45:34;;;;;;;4.45;2.53;;;;;;;;;;21022413;28;20502;-62
2023/06/30 02:55:36;;;;;;;4.05;2.50;;;;;;;;;;21022026;28;20055;-62
2023/06/30 03:05:37;;;;;;;4.30;2.70;;;;;;;;;;21008691;28;20098;-62
2023/06/30 03:15:38;;;;;;;3.28;2.00;;;;;;;;;;21006610;28;20093;-62
2023/06/30 03:25:39;;;;;;;4.03;2.30;;;;;;;;;;21007074;28;20047;-61
2023/06/30 03:35:41;;;;;;;3.33;2.10;;;;;;;;;;21005521;28;20056;-62
2023/06/30 03:45:42;;;;;;;3.30;1.73;;;;;;;;;;21004148;28;20083;-63
2023/06/30 03:55:43;;;;;;;3.28;2.22;;;;;;;;;;21004697;28;20178;-63
2023/06/30 04:05:44;;;;;;;2.90;1.65;;;;;;;;;;21003946;28;20121;-63
2023/06/30 04:15:45;;;;;;;2.42;1.60;;;;;;;;;;21001559;28;20051;-62
2023/06/30 04:25:46;;;;;;;2.63;1.65;;;;;;;;;;21002207;28;20150;-62
2023/06/30 04:35:47;;;;;;;1.73;1.20;;;;;;;;;;21000558;28;20087;-63
2023/06/30 04:45:48;;;;;;;2.40;1.50;;;;;;;;;;20999149;28;20083;-63
2023/06/30 04:55:50;;;;;;;1.52;0.85;;;;;;;;;;20999611;28;20124;-62
2023/06/30 05:05:51;;;;;;;1.48;0.82;;;;;;;;;;20998605;28;20374;-63
2023/06/30 05:15:52;;;;;;;1.63;0.68;;;;;;;;;;20998524;28;20048;-62
2023/06/30 05:25:53;;;;;;;1.52;0.85;;;;;;;;;;20997366;28;20098;-62
2023/06/30 05:35:54;;;;;;;1.23;0.65;;;;;;;;;;20996650;28;20445;-62
2023/06/30 05:45:55;;;;;;;1.35;0.75;;;;;;;;;;20996621;28;20076;-63
2023/06/30 05:55:56;;;;;;;1.05;0.52;;;;;;;;;;20995419;28;20048;-62
2023/06/30 06:05:58;;;;;;;1.00;0.52;;;;;;;;;;20995948;28;20040;-62
2023/06/30 06:15:59;;;;;;;1.70;0.40;;;;;;;;;;20995112;28;20044;-62
2023/06/30 06:26:03;;;;;;;0.30;0.20;;;;;;;;;;20994875;28;20048;-63
2023/06/30 06:36:05;;;;;;;1.15;0.28;;;;;;;;;;20998894;28;20044;-62
2023/06/30 06:46:06;;;;;;;1.17;0.22;;;;;;;;;;21007086;28;20060;-62
2023/06/30 06:56:07;;;;;;;0.77;0.30;;;;;;;;;;21007822;28;20071;-63
2023/06/30 07:06:08;;;;;;;0.50;0.10;;;;;;;;;;21007006;28;20041;-62
2023/06/30 07:16:10;;;;;;;0.38;0.10;;;;;;;;;;21006163;28;20068;-63
2023/06/30 07:26:11;;;;;;;0.20;0.10;;;;;;;;;;21006660;28;20474;-63
2023/06/30 07:36:12;;;;;;;1.45;0.30;;;;;;;;;;21005427;28;20131;-63
2023/06/30 07:46:15;;;;;;;0.20;0.10;;;;;;;;;;21003795;28;20057;-62
2023/06/30 07:56:16;;;;;;;1.15;0.32;;;;;;;;;;21004207;28;20545;-62
2023/06/30 08:06:17;;;;;;;1.10;0.10;;;;;;;;;;21003412;28;20466;-63
2023/06/30 08:16:18;;;;;;;2.45;0.10;;;;;;;;;;21002563;28;20494;-62
2023/06/30 08:26:19;;;;;;;1.17;0.17;;;;;;;;;;21001546;28;20549;-63
2023/06/30 08:36:22;;;;;;;1.42;0.30;;;;;;;;;;20999228;28;20067;-62
2023/06/30 08:46:26;;;;;;;0.45;0.20;;;;;;;;;;20999850;28;20437;-63
2023/06/30 08:56:27;;;;;;;1.58;0.10;;;;;;;;;;20997588;28;20052;-62
2023/06/30 09:06:29;;;;;;;2.00;0.20;;;;;;;;;;20997489;28;20047;-63
2023/06/30 09:16:31;;;;;;;0.63;0.13;;;;;;;;;;20998197;28;20044;-63
2023/06/30 09:26:34;;;;;;;0.70;0.30;;;;;;;;;;20995843;28;20098;-62
2023/06/30 09:36:37;;;;;;;1.85;0.28;;;;;;;;;;20995983;28;20061;-62
2023/06/30 09:47:08;;;;;;;0.47;0.32;;;;;;;;;;20996661;28;20080;-63
2023/06/30 09:57:09;;;;;;;0.85;0.20;;;;;;;;;;20995300;28;20093;-63
2023/06/30 10:07:11;;;;;;;1.60;0.30;;;;;;;;;;20996808;28;20119;-63
2023/06/30 10:17:13;;;;;;;0.52;0.28;;;;;;;;;;21012265;28;20430;-63
2023/06/30 10:27:18;;;;;;;0.50;0.30;;;;;;;;;;21011416;28;20149;-64
2023/06/30 10:37:19;;;;;;;3.65;0.38;;;;;;;;;;21009389;28;20535;-63
2023/06/30 10:47:27;;;;;;;3.42;0.47;;;;;;;;;;21009943;28;20505;-63
2023/06/30 10:57:34;;;;;;;0.95;0.30;;;;;;;;;;21008587;28;20048;-62
2023/06/30 11:07:36;;;;;;;0.98;0.35;;;;;;;;;;21008039;28;20040;-63
2023/06/30 11:18:03;;;;;;;1.75;0.38;;;;;;;;;;21007819;28;20064;-63
2023/06/30 11:28:05;;;;;;;2.20;0.55;;;;;;;;;;21004891;28;20080;-62
2023/06/30 11:38:10;;;;;;;0.75;0.40;;;;;;;;;;21004749;28;20102;-63
2023/06/30 11:48:12;;;;;;;0.55;0.30;;;;;;;;;;21003129;28;20056;-64
2023/06/30 11:58:18;;;;;;;0.80;0.35;;;;;;;;;;21003661;28;20036;-64
2023/06/30 12:08:20;;;;;;;0.70;0.40;;;;;;;;;;21002818;28;20532;-63
2023/06/30 12:18:31;;;;;;;1.58;0.65;;;;;;;;;;21002321;28;20118;-64
2023/06/30 12:28:32;;;;;;;1.52;0.47;;;;;;;;;;21001374;28;20044;-64
2023/06/30 12:38:37;;;;;;;2.38;0.63;;;;;;;;;;20999255;28;20052;-63
2023/06/30 12:48:38;;;;;;;2.25;0.70;;;;;;;;;;20998107;28;20059;-64
2023/06/30 12:58:39;;;;;;;1.63;1.13;;;;;;;;;;20998823;28;20036;-63
2023/06/30 13:08:40;;;;;;;1.70;1.25;;;;;;;;;;20998379;28;20045;-63
2023/06/30 13:18:41;;;;;;;3.75;1.77;;;;;;;;;;20996680;28;20097;-64
2023/06/30 13:28:42;;;;;;;5.70;2.47;;;;;;;;;;20997404;28;20040;-63
2023/06/30 13:38:43;;;;;;;2.13;1.40;;;;;;;;;;20995848;28;20517;-63
2023/06/30 13:48:44;;;;;;;3.15;1.60;;;;;;;;;;20995911;28;20063;-63
2023/06/30 13:58:45;;;;;;;5.07;3.33;;;;;;;;;;20996006;28;20049;-63
2023/06/30 14:08:47;;;;;;;6.85;3.08;;;;;;;;;;20995214;28;20041;-64
2023/06/30 14:18:48;;;;;;;5.28;3.78;;;;;;;;;;20995158;28;20109;-62
2023/06/30 14:28:49;;;;;;;6.03;4.20;;;;;;;;;;20994548;28;20051;-63
2023/06/30 14:38:50;;;;;;;6.13;4.20;;;;;;;;;;20993670;28;20053;-64
2023/06/30 14:48:51;;;;;;;5.22;3.78;;;;;;;;;;20994868;28;20044;-64
2023/06/30 14:58:54;;;;;;;5.30;3.67;;;;;;;;;;21002117;28;20036;-63
2023/06/30 15:08:55;;;;;;;5.82;3.35;;;;;;;;;;21008133;28;20045;-63
2023/06/30 15:18:57;;;;;;;5.13;3.45;;;;;;;;;;21007254;28;20041;-64
2023/06/30 15:28:58;;;;;;;4.63;3.13;;;;;;;;;;21007055;28;20490;-76
2023/06/30 15:38:59;;;;;;;5.57;3.60;;;;;;;;;;21005454;28;20371;-70
2023/06/30 15:49:00;;;;;;;4.43;3.30;;;;;;;;;;21003960;28;20057;-70
2023/06/30 15:59:01;;;;;;;4.60;3.13;;;;;;;;;;21004209;28;20040;-67
2023/06/30 16:09:02;;;;;;;4.63;2.90;;;;;;;;;;21003037;28;20124;-63
2023/06/30 16:19:03;;;;;;;5.88;3.45;;;;;;;;;;21002721;28;20503;-65
2023/06/30 16:29:04;;;;;;;5.35;3.03;;;;;;;;;;21001779;28;20036;-70
2023/06/30 16:39:05;;;;;;;4.00;3.08;;;;;;;;;;21003165;28;20052;-69
2023/06/30 16:49:07;;;;;;;5.65;3.55;;;;;;;;;;20999254;28;20048;-67
2023/06/30 16:59:08;;;;;;;5.60;3.30;;;;;;;;;;20999399;28;20109;-68
2023/06/30 17:09:09;;;;;;;4.68;3.42;;;;;;;;;;20998582;28;20040;-67
2023/06/30 17:19:10;;;;;;;5.82;3.90;;;;;;;;;;20997580;28;20379;-70
2023/06/30 17:29:12;;;;;;;5.75;4.28;;;;;;;;;;20997391;28;20067;-72
2023/06/30 17:39:13;;;;;;;6.32;3.80;;;;;;;;;;20995460;28;20080;-68
2023/06/30 17:49:24;;;;;;;7.10;3.53;;;;;;;;;;20996426;28;20140;-68
2023/06/30 17:59:27;;;;;;;5.13;3.60;;;;;;;;;;20996526;28;20596;-72
2023/06/30 18:09:29;;;;;;;6.30;3.42;;;;;;;;;;20994529;28;20048;-71
2023/06/30 18:19:33;;;;;;;3.85;2.88;;;;;;;;;;20995245;28;20072;-73
2023/06/30 18:29:35;;;;;;;4.13;3.20;;;;;;;;;;20998400;28;20490;-68
2023/06/30 18:39:37;;;;;;;4.75;3.50;;;;;;;;;;21008986;28;20398;-65
2023/06/30 18:49:39;;;;;;;5.90;4.35;;;;;;;;;;21008338;28;20174;-62
2023/06/30 18:59:40;;;;;;;5.95;4.20;;;;;;;;;;21008622;28;20511;-60
2023/06/30 19:09:41;;;;;;;6.18;4.13;;;;;;;;;;21008104;28;20036;-61
2023/06/30 19:19:42;;;;;;;6.45;3.88;;;;;;;;;;21006607;28;20044;-61
2023/06/30 19:29:43;;;;;;;7.57;4.63;;;;;;;;;;21006274;28;20040;-62
2023/06/30 19:39:44;;;;;;;5.63;4.18;;;;;;;;;;21003334;28;20048;-62
2023/06/30 19:49:45;;;;;;;6.07;4.20;;;;;;;;;;21002265;28;20160;-61
2023/06/30 19:59:46;;;;;;;7.70;3.83;;;;;;;;;;21003001;28;20151;-61
2023/06/30 20:09:48;;;;;;;4.97;3.40;;;;;;;;;;21002379;28;20040;-62
2023/06/30 20:19:49;;;;;;;4.88;3.40;;;;;;;;;;21002443;28;20044;-61
2023/06/30 20:29:50;;;;;;;6.85;3.70;;;;;;;;;;21001848;28;20445;-62
2023/06/30 20:39:51;;;;;;;6.65;4.03;;;;;;;;;;21002174;28;20133;-60
2023/06/30 20:49:52;;;;;;;4.65;3.28;;;;;;;;;;20998998;28;20044;-60
2023/06/30 20:59:53;;;;;;;7.32;3.35;;;;;;;;;;20997444;28;20048;-62
2023/06/30 21:09:54;;;;;;;5.95;3.60;;;;;;;;;;20998760;28;20044;-61
2023/06/30 21:19:55;;;;;;;5.57;3.30;;;;;;;;;;20998006;28;20394;-61
2023/06/30 21:29:56;;;;;;;5.75;2.95;;;;;;;;;;20997207;28;20049;-61
2023/06/30 21:40:00;;;;;;;3.22;2.10;;;;;;;;;;20995462;28;20049;-62
2023/06/30 21:50:02;;;;;;;4.75;2.00;;;;;;;;;;20995074;28;20052;-61
2023/06/30 22:00:04;;;;;;;3.72;2.03;;;;;;;;;;20995728;28;20401;-62
2023/06/30 22:10:06;;;;;;;10.95;1.77;;;;;;;;;;21008981;28;20048;-61
2023/06/30 22:20:09;;;;;;;2.08;1.40;;;;;;;;;;21010639;28;20048;-62
2023/06/30 22:30:10;;;;;;;4.60;1.50;;;;;;;;;;21011133;28;20481;-62
2023/06/30 22:40:11;;;;;;;1.95;1.30;;;;;;;;;;21008927;28;20136;-61
2023/06/30 22:50:12;;;;;;;1.77;1.20;;;;;;;;;;21009693;28;20379;-60
2023/06/30 23:00:14;;;;;;;2.22;1.73;;;;;;;;;;21007684;28;20093;-61
2023/06/30 23:10:15;;;;;;;3.45;1.40;;;;;;;;;;21008398;28;20041;-61
2023/06/30 23:20:16;;;;;;;2.50;1.60;;;;;;;;;;21005584;28;20049;-60
2023/06/30 23:30:17;;;;;;;2.63;1.30;;;;;;;;;;21007225;28;20436;-61
2023/06/30 23:40:18;;;;;;;2.40;1.35;;;;;;;;;;21005140;28;20053;-60
2023/06/30 23:50:19;;;;;;;2.45;1.73;;;;;;;;;;21005842;28;20398;-60
